METAR stanice u blizini

 

LYBE - Beograd / Surčin, Srbija
Ažurirano: 23/10/2018 00:30
Mostly Cloudy
Mostly Cloudy
 Pravac vetra Z
Vetar: Z 9 km/h
Temperatura: 11°C
Tačka rose: 10°C
Vlažnost: 94%
Pritisak: 1024 hPa
Oblaci: Mostly Cloudy
Vidljivost: 7 km
Cloud details: Mostly Cloudy 1006 m
2018/10/22 22:30 LYBE 222230Z 28005KT 7000 BKN033 11/10 Q1024 NOSIG
LYBT - Beograd / Batajnica, Srbija
Ažurirano: 23/10/2018 00:30
Mostly Cloudy
Mostly Cloudy
 Pravac vetra ZJZ
Vetar: ZJZ 6 km/h
Temperatura: 11°C
Tačka rose: 9°C
Vlažnost: 88%
Pritisak: 1024 hPa
Oblaci: Mostly Cloudy
Vidljivost: 7 km
Cloud details: Mostly Cloudy 1006 m
2018/10/22 22:30 LYBT 222230Z 24003KT 220V280 7000 BKN033 11/09 Q1024 NOSIG
LYVR - Vršac, Srbija
Ažurirano: 23/10/2018 00:30
Mist, Delimično oblačno
Mist, Delimično oblačno
 Pravac vetra S
Vetar: S 9 km/h
Temperatura: 10°C
Osećaj hladnoće: 9°C
Tačka rose: 10°C
Vlažnost: 100%
Pritisak: 1024 hPa
Pregled: Mist
Oblaci: Partly Cloudy
Vidljivost: 4 km
Cloud details: Partly Cloudy 1219 m
2018/10/22 22:30 LYVR 222230Z 01005KT 4000 BR SCT040 10/10 Q1024 NOSIG
 
LYKV - Lađevci, Srbija
Ažurirano: 23/10/2018 00:30
Oblačno
Oblačno
 Pravac vetra varies
Vetar: varies 4 km/h
Temperatura: 10°C
Tačka rose: 10°C
Vlažnost: 100%
Pritisak: 1024 hPa
Oblaci: Oblačno
Vidljivost: 7 km
Cloud details: Oblačno 457 m
2018/10/22 22:30 LYKV 222230Z VRB02KT 7000 OVC015 10/10 Q1024 NOSIG
LYNI - Niš, Srbija
Ažurirano: 23/10/2018 00:30
Few Clouds
Few Clouds
 Pravac vetra SSZ
Vetar: SSZ 20 km/h
Temperatura: 10°C
Osećaj hladnoće: 7°C
Tačka rose: 8°C
Vlažnost: 88%
Pritisak: 1023 hPa
Oblaci: Few Clouds
Vidljivost: 6 km
Cloud details: Few Clouds 1219 m
2018/10/22 22:30 LYNI 222230Z 34011KT 300V010 6000 FEW040 10/08 Q1023 NOSIG
BKPR - Priština, Srbija
Ažurirano: 23/10/2018 00:30
Mostly Cloudy
Mostly Cloudy
 Pravac vetra SSI
Vetar: SSI 26 km/h
Temperatura: 10°C
Osećaj hladnoće: 7°C
Tačka rose: 6°C
Vlažnost: 76%
Pritisak: 1021 hPa
Oblaci: Mostly Cloudy
Vidljivost: 10 km
Cloud details: Partly Cloudy 1219 m
Mostly Cloudy 1829 m
2018/10/22 22:30 BKPR 222230Z 02014KT 9999 SCT040 BKN060 10/06 Q1021 NOSIG
 
LHPP - Pecs / Pogany, Hungary
Ažurirano: 22/10/2018 18:45
NOT Current
Oblačno
Oblačno
 Pravac vetra SI
Vetar: SI 9 km/h
Temperatura: 12°C
Tačka rose: 7°C
Vlažnost: 72%
Pritisak: 1024 hPa
Oblaci: Oblačno
Vidljivost: 10 km
Cloud details: Oblačno 1006 m
2018/10/22 16:45 LHPP 221645Z 04005KT 9999 OVC033 12/07 Q1024
LHUD - Szeged, Hungary
Ažurirano: 22/10/2018 23:45
Vedro
Vedro
 Pravac vetra ZSZ
Vetar: ZSZ 7 km/h
Temperatura: 10°C
Osećaj hladnoće: 9°C
Tačka rose: 8°C
Vlažnost: 88%
Pritisak: 1024 hPa
Pregled: Vedro
Vidljivost: greater than 10 km
2018/10/22 21:45 LHUD 222145Z 29004KT CAVOK 10/08 Q1024
LRTR - Timisoara, Romania
Ažurirano: 23/10/2018 00:30
Mist, Few clouds
Mist, Few clouds
 Pravac vetra Z
Vetar: Z 6 km/h
Temperatura: 10°C
Tačka rose: 10°C
Vlažnost: 100%
Pritisak: 1023 hPa
Pregled: Mist
Oblaci: Few Clouds
Vidljivost: 5 km
Cloud details: Few Clouds 1494 m
2018/10/22 22:30 LRTR 222230Z 28003KT 5000 BR FEW049 10/10 Q1023
 
LRCV - Craiova, Romania
Ažurirano: 23/10/2018 00:30
Partly Cloudy
Partly Cloudy
 Pravac vetra S
Vetar: S 4 km/h
Temperatura: 7°C
Tačka rose: 6°C
Vlažnost: 93%
Pritisak: 1022 hPa
Oblaci: Partly Cloudy
Vidljivost: 6 km
2018/10/22 22:30 LRCV 222230Z 35002KT 6000 NSC 07/06 Q1022
LBSF - Sofia, Bulgaria
Ažurirano: 23/10/2018 00:30
Oblačno
Oblačno
 Pravac vetra IJI
Vetar: IJI 11 km/h
Temperatura: 11°C
Tačka rose: 6°C
Vlažnost: 72%
Pritisak: 1022 hPa
Oblaci: Oblačno
Vidljivost: 10 km
Cloud details: Oblačno 1158 m
2018/10/22 22:30 LBSF 222230Z 11006KT 9999 OVC038 11/06 Q1022 NOSIG
LWSK - Skoplje, Makedonija
Ažurirano: 23/10/2018 00:30
Oblačno
Oblačno
 Pravac vetra calm
Vetar: Tišina
Temperatura: 11°C
Tačka rose: 10°C
Vlažnost: 94%
Pritisak: 1021 hPa
Oblaci: Oblačno
Vidljivost: 7 km
Cloud details: Mostly Cloudy 1615 m
Oblačno 2225 m
2018/10/22 22:30 LWSK 222230Z 00000KT 7000 BKN053 OVC073 11/10 Q1021 NOSIG
 
LYPG - Podgorica, Crna Gora
Ažurirano: 23/10/2018 00:30
Mostly Cloudy
Mostly Cloudy
 Pravac vetra varies
Vetar: varies 2 km/h
Temperatura: 16°C
Tačka rose: 9°C
Vlažnost: 63%
Pritisak: 1016 hPa
Oblaci: Mostly Cloudy
Vidljivost: 10 km
Cloud details: Partly Cloudy 1524 m
Mostly Cloudy 2438 m
2018/10/22 22:30 LYPG 222230Z VRB01KT 9999 SCT050 BKN080 16/09 Q1016 NOSIG
LQSA - Sarajevo, Bosna i Hercegovina
Ažurirano: 23/10/2018 00:00
Oblačno
Oblačno
 Pravac vetra ZSZ
Vetar: ZSZ 9 km/h
Temperatura: 8°C
Osećaj hladnoće: 6°C
Tačka rose: 7°C
Vlažnost: 93%
Pritisak: 1024 hPa
Oblaci: Oblačno
Vidljivost: 8 km
Cloud details: Oblačno 640 m
2018/10/22 22:00 LQSA 222200Z 30005KT 8000 OVC021 08/07 Q1024
LDOS - Osijek, Hrvatksa
Ažurirano: 23/10/2018 00:30
Mostly Cloudy
Mostly Cloudy
 Pravac vetra ZSZ
Vetar: ZSZ 11 km/h
Temperatura: 11°C
Tačka rose: 9°C
Vlažnost: 88%
Pritisak: 1025 hPa
Oblaci: Mostly Cloudy
Vidljivost: 10 km
Cloud details: Mostly Cloudy 914 m
2018/10/22 22:30 LDOS 222230Z 29006KT 9999 BKN030 11/09 Q1025